Time;durP1;ratioP1;P1;durP2;ratioP2;P2;SDS_P1;SDS_P2;PMS_P1;PMS_P2;Temp;Humidity;BMP_temperature;BMP_pressure;BME280_temperature;BME280_humidity;BME280_pressure;Samples;Min_cycle;Max_cycle;Signal;HPM_P1;HPM_P2
2023/09/12 00:01:05;;;;;;;21.35;12.35;;;;;;;23.45;78.36;101169.00;5094459;28;20020;-64
2023/09/12 00:03:31;;;;;;;17.70;13.05;;;;;;;23.53;77.81;101180.41;5094467;28;20032;-65
2023/09/12 00:05:59;;;;;;;17.13;13.55;;;;;;;23.56;77.57;101184.81;5094456;28;20016;-64
2023/09/12 00:08:25;;;;;;;20.30;14.18;;;;;;;23.54;77.55;101192.06;5094271;28;20032;-64
2023/09/12 00:11:10;;;;;;;17.42;13.40;;;;;;;23.29;79.39;101190.25;5094328;28;20030;-65
2023/09/12 00:13:37;;;;;;;19.55;14.32;;;;;;;23.33;78.67;101177.56;5094117;28;20537;-65
2023/09/12 00:16:02;;;;;;;20.85;14.40;;;;;;;23.38;77.97;101187.25;5094186;28;20066;-65
2023/09/12 00:18:28;;;;;;;25.05;14.88;;;;;;;23.24;78.25;101184.16;5094202;28;20055;-65
2023/09/12 00:20:54;;;;;;;19.42;14.43;;;;;;;23.19;78.30;101186.16;5094144;28;20028;-65
2023/09/12 00:23:22;;;;;;;18.30;14.35;;;;;;;23.07;78.54;101192.84;5094347;28;20454;-65
2023/09/12 00:25:47;;;;;;;20.48;15.15;;;;;;;22.99;78.73;101181.47;5093925;28;20016;-65
2023/09/12 00:28:13;;;;;;;18.77;15.27;;;;;;;23.08;78.64;101185.66;5094006;28;20077;-65
2023/09/12 00:30:38;;;;;;;21.95;15.00;;;;;;;23.17;78.63;101193.44;5093432;28;20032;-65
2023/09/12 00:33:04;;;;;;;20.23;14.90;;;;;;;23.14;77.90;101180.06;5094185;28;20465;-65
2023/09/12 00:35:29;;;;;;;20.70;14.30;;;;;;;23.14;78.31;101190.84;5093862;28;20031;-65
2023/09/12 00:37:54;;;;;;;21.23;15.00;;;;;;;23.03;78.55;101191.19;5093804;28;20526;-65
2023/09/12 00:40:20;;;;;;;19.00;14.48;;;;;;;23.02;78.70;101181.38;5093659;28;20070;-65
2023/09/12 00:42:45;;;;;;;17.80;13.10;;;;;;;23.13;78.31;101187.28;5093604;28;20028;-65
2023/09/12 00:45:11;;;;;;;21.40;13.75;;;;;;;23.03;78.49;101199.28;5093622;28;20046;-65
2023/09/12 00:47:36;;;;;;;20.00;13.70;;;;;;;23.01;78.28;101193.09;5093841;28;20081;-65
2023/09/12 00:50:04;;;;;;;19.13;14.38;;;;;;;22.91;78.43;101197.03;5093297;28;20027;-65
2023/09/12 00:52:31;;;;;;;18.25;14.68;;;;;;;22.87;78.27;101182.78;5092988;28;20441;-65
2023/09/12 00:54:57;;;;;;;20.05;13.98;;;;;;;22.78;79.33;101174.09;5093653;28;20024;-65
2023/09/12 00:57:23;;;;;;;19.25;14.77;;;;;;;22.68;79.77;101178.94;5093490;28;20107;-65
2023/09/12 00:59:49;;;;;;;19.10;13.98;;;;;;;22.56;80.24;101177.53;5093256;28;20032;-65
2023/09/12 01:02:16;;;;;;;17.27;12.77;;;;;;;22.39;80.21;101175.41;5093754;28;20032;-65
2023/09/12 01:04:42;;;;;;;18.42;13.38;;;;;;;22.25;81.26;101170.47;5093431;28;20028;-65
2023/09/12 01:07:07;;;;;;;20.73;14.10;;;;;;;22.41;80.36;101178.94;5093281;28;20039;-65
2023/09/12 01:09:34;;;;;;;20.45;13.40;;;;;;;22.39;80.87;101178.09;5093359;28;20474;-65
2023/09/12 01:12:02;;;;;;;20.52;13.27;;;;;;;22.37;81.05;101177.28;5092868;28;20059;-65
2023/09/12 01:14:28;;;;;;;23.42;14.52;;;;;;;22.25;81.86;101174.97;5093240;28;20130;-65
2023/09/12 01:16:54;;;;;;;19.80;14.18;;;;;;;22.39;81.08;101174.50;5093340;28;20517;-65
2023/09/12 01:19:20;;;;;;;21.45;13.32;;;;;;;22.49;80.45;101162.53;5093238;28;20059;-65
2023/09/12 01:22:19;;;;;;;17.60;12.98;;;;;;;22.69;78.83;101162.69;5093072;28;20038;-65
2023/09/12 01:25:09;;;;;;;20.70;13.15;;;;;;;22.58;79.54;101169.41;5093472;28;20090;-65
2023/09/12 01:27:38;;;;;;;23.55;13.60;;;;;;;22.45;80.26;101177.03;5093135;28;20025;-65
2023/09/12 01:30:05;;;;;;;20.55;13.15;;;;;;;22.50;79.88;101165.16;5093046;28;20047;-65
2023/09/12 01:32:32;;;;;;;23.05;13.25;;;;;;;22.38;80.54;101170.94;5093251;28;20089;-65
2023/09/12 01:34:58;;;;;;;20.95;13.55;;;;;;;22.35;80.09;101172.84;5093295;28;20028;-65
2023/09/12 01:37:23;;;;;;;20.17;12.77;;;;;;;22.24;80.86;101165.16;5092816;28;20508;-65
2023/09/12 01:39:49;;;;;;;17.00;12.95;;;;;;;22.12;81.36;101166.41;5092871;28;20036;-65
2023/09/12 01:42:20;;;;;;;17.33;12.48;;;;;;;22.11;81.47;101161.94;5093042;28;20024;-65
2023/09/12 01:44:46;;;;;;;14.57;12.13;;;;;;;22.18;81.01;101166.22;5092855;28;20028;-65
2023/09/12 01:47:13;;;;;;;20.73;13.35;;;;;;;22.02;81.47;101159.53;5092993;28;20054;-65
2023/09/12 01:49:41;;;;;;;16.73;12.70;;;;;;;21.98;81.80;101163.25;5092843;28;20120;-65
2023/09/12 01:52:07;;;;;;;24.80;12.90;;;;;;;21.91;81.87;101158.97;5093016;28;20056;-65
2023/09/12 01:54:34;;;;;;;21.55;13.18;;;;;;;21.85;82.04;101157.38;5092933;28;20456;-65
2023/09/12 01:57:01;;;;;;;19.52;13.68;;;;;;;21.78;82.39;101157.59;5092786;28;20473;-65
2023/09/12 01:59:27;;;;;;;19.20;13.50;;;;;;;21.69;82.46;101169.53;5093100;28;20103;-65
2023/09/12 02:01:53;;;;;;;19.75;13.85;;;;;;;21.70;82.93;101164.09;5093591;28;20046;-65
2023/09/12 02:04:18;;;;;;;17.27;13.95;;;;;;;21.65;82.78;101167.84;5096767;28;20405;-65
2023/09/12 02:06:43;;;;;;;21.17;14.88;;;;;;;21.59;83.12;101159.97;5096792;28;20020;-65
2023/09/12 02:09:09;;;;;;;20.45;13.82;;;;;;;21.61;82.55;101159.00;5096442;28;20064;-65
2023/09/12 02:11:34;;;;;;;16.33;13.43;;;;;;;21.61;82.63;101156.31;5096511;28;20020;-65
2023/09/12 02:14:00;;;;;;;17.25;13.63;;;;;;;21.60;83.33;101156.34;5096398;28;20071;-65
2023/09/12 02:16:25;;;;;;;15.57;13.13;;;;;;;21.58;83.28;101148.31;5078643;28;20027;-65
2023/09/12 02:18:50;;;;;;;22.38;13.32;;;;;;;21.55;83.62;101151.13;5096801;28;20035;-65
2023/09/12 02:21:16;;;;;;;16.95;13.00;;;;;;;21.44;83.73;101154.09;5078271;28;20043;-65
2023/09/12 02:23:42;;;;;;;14.85;12.35;;;;;;;21.37;83.59;101152.53;5096657;28;20056;-65
2023/09/12 02:26:07;;;;;;;15.77;12.07;;;;;;;21.33;84.36;101150.88;5096449;28;20496;-64
2023/09/12 02:28:33;;;;;;;16.83;11.68;;;;;;;21.18;84.61;101156.63;5096337;28;20024;-64
2023/09/12 02:30:58;;;;;;;18.52;11.52;;;;;;;21.14;84.76;101166.59;5096094;28;20035;-65
2023/09/12 02:33:24;;;;;;;18.63;11.88;;;;;;;21.21;84.64;101161.94;5096519;28;20047;-65
2023/09/12 02:35:49;;;;;;;16.60;12.25;;;;;;;21.21;84.44;101167.31;5096168;28;20111;-65
2023/09/12 02:38:15;;;;;;;16.45;13.05;;;;;;;21.24;84.30;101169.88;5096310;28;20028;-65
2023/09/12 02:40:40;;;;;;;15.45;12.00;;;;;;;21.24;84.28;101165.41;5095801;28;20478;-65
2023/09/12 02:43:05;;;;;;;14.48;11.15;;;;;;;21.21;84.26;101170.88;5096289;28;20028;-65
2023/09/12 02:45:31;;;;;;;17.02;12.18;;;;;;;21.18;84.27;101170.06;5096106;28;20028;-65
2023/09/12 02:47:56;;;;;;;14.77;11.45;;;;;;;21.24;83.94;101159.13;5096018;28;20478;-65
2023/09/12 02:50:22;;;;;;;16.83;11.05;;;;;;;21.39;83.34;101166.81;5077821;28;20033;-65
2023/09/12 02:52:47;;;;;;;17.80;10.60;;;;;;;21.42;82.43;101152.41;5095883;28;20103;-65
2023/09/12 02:55:12;;;;;;;12.35;10.35;;;;;;;21.48;82.15;101157.59;5095805;28;20020;-65
2023/09/12 02:57:38;;;;;;;16.42;10.73;;;;;;;21.45;81.99;101161.25;5095772;28;20028;-65
2023/09/12 03:00:07;;;;;;;16.52;10.50;;;;;;;21.47;81.31;101159.41;5095688;28;20037;-65
2023/09/12 03:02:32;;;;;;;17.92;10.68;;;;;;;21.37;80.88;101157.00;5095731;28;20024;-65
2023/09/12 03:04:57;;;;;;;14.25;9.00;;;;;;;21.51;80.76;101168.28;5077512;28;20389;-65
2023/09/12 03:07:23;;;;;;;12.38;8.05;;;;;;;21.51;80.59;101157.50;5095774;28;20020;-65
2023/09/12 03:09:49;;;;;;;14.70;8.20;;;;;;;21.48;80.27;101171.03;5095605;28;20036;-65
2023/09/12 03:12:15;;;;;;;12.70;7.72;;;;;;;21.57;79.94;101168.06;5095198;28;20063;-65
2023/09/12 03:14:40;;;;;;;11.32;7.43;;;;;;;21.50;79.60;101171.91;5094508;28;20397;-65
2023/09/12 03:17:06;;;;;;;10.65;6.32;;;;;;;21.53;79.49;101166.41;5095384;28;20177;-65
2023/09/12 03:19:31;;;;;;;9.45;6.20;;;;;;;21.47;79.79;101166.59;5095421;28;20025;-65
2023/09/12 03:21:56;;;;;;;8.15;5.85;;;;;;;21.52;80.60;101161.09;5095376;28;20032;-65
2023/09/12 03:24:24;;;;;;;7.50;6.63;;;;;;;21.54;80.22;101153.84;5095354;28;20551;-65
2023/09/12 03:26:50;;;;;;;8.23;7.13;;;;;;;21.45;80.17;101139.72;5077082;28;20032;-65
2023/09/12 03:29:16;;;;;;;10.25;7.30;;;;;;;21.49;80.53;101144.09;5095279;28;20031;-65
2023/09/12 03:31:41;;;;;;;9.77;7.57;;;;;;;21.46;80.12;101141.53;5094969;28;20028;-65
2023/09/12 03:34:07;;;;;;;11.43;8.30;;;;;;;21.42;80.79;101138.97;5095181;28;20028;-65
2023/09/12 03:36:32;;;;;;;9.93;8.90;;;;;;;21.21;80.98;101140.44;5095366;28;20095;-65
2023/09/12 03:38:58;;;;;;;12.18;8.60;;;;;;;21.01;81.69;101147.22;5076966;28;20032;-65
2023/09/12 03:41:25;;;;;;;10.07;8.00;;;;;;;20.97;82.31;101145.56;5094976;28;20466;-65
2023/09/12 03:43:53;;;;;;;12.85;8.13;;;;;;;20.90;82.96;101149.34;5094839;28;20028;-65
2023/09/12 03:46:18;;;;;;;9.77;7.60;;;;;;;20.76;83.10;101149.69;5094823;28;20492;-65
2023/09/12 03:48:43;;;;;;;15.63;8.40;;;;;;;20.73;83.34;101140.88;5094863;28;20036;-65
2023/09/12 03:51:09;;;;;;;13.02;8.48;;;;;;;20.68;83.47;101140.97;5076551;28;20465;-65
2023/09/12 03:53:34;;;;;;;13.98;9.90;;;;;;;20.62;84.33;101140.25;5094720;28;20024;-65
2023/09/12 03:56:00;;;;;;;11.77;8.70;;;;;;;20.58;84.25;101150.19;5076563;28;20081;-65
2023/09/12 03:58:25;;;;;;;14.75;8.88;;;;;;;20.46;84.93;101147.78;5094613;28;20020;-65
2023/09/12 04:00:50;;;;;;;15.27;9.77;;;;;;;20.38;85.34;101147.09;5094574;28;20032;-65
2023/09/12 04:03:16;;;;;;;15.68;10.48;;;;;;;20.40;85.41;101135.41;5094534;28;20036;-65
2023/09/12 04:05:41;;;;;;;15.43;10.25;;;;;;;20.40;85.75;101138.09;5094425;28;20089;-65
2023/09/12 04:08:07;;;;;;;14.07;11.20;;;;;;;20.42;85.98;101133.53;5094424;28;20021;-65
2023/09/12 04:10:32;;;;;;;14.82;10.68;;;;;;;20.48;86.13;101141.50;5094238;28;20538;-65
2023/09/12 04:12:58;;;;;;;15.68;11.60;;;;;;;20.59;86.14;101141.22;5094215;28;20056;-64
2023/09/12 04:15:23;;;;;;;18.17;12.75;;;;;;;20.63;85.92;101140.22;5094258;28;20028;-66
2023/09/12 04:17:49;;;;;;;18.45;12.02;;;;;;;20.62;85.74;101141.13;5094450;28;20028;-64
2023/09/12 04:20:14;;;;;;;17.95;13.20;;;;;;;20.66;85.73;101132.06;5094455;28;20107;-65
2023/09/12 04:22:41;;;;;;;19.70;14.05;;;;;;;20.68;86.05;101135.59;5093991;28;20036;-64
2023/09/12 04:25:07;;;;;;;19.05;14.68;;;;;;;20.63;86.06;101145.56;5094221;28;20024;-64
2023/09/12 04:27:34;;;;;;;19.92;14.73;;;;;;;20.68;86.40;101130.22;5093990;28;20028;-64
2023/09/12 04:29:59;;;;;;;21.55;15.18;;;;;;;20.70;86.40;101132.88;5094152;28;20032;-66
2023/09/12 04:32:24;;;;;;;21.05;14.60;;;;;;;20.68;86.51;101130.22;5093942;28;20474;-64
2023/09/12 04:34:50;;;;;;;21.83;13.50;;;;;;;20.71;86.18;101140.00;5093938;28;20034;-64
2023/09/12 04:37:16;;;;;;;18.98;13.90;;;;;;;20.60;86.89;101140.31;5093841;28;20028;-65
2023/09/12 04:39:41;;;;;;;23.95;14.35;;;;;;;20.49;87.56;101140.56;5093654;28;20140;-65
2023/09/12 04:42:07;;;;;;;20.17;13.95;;;;;;;20.40;88.65;101156.00;5093830;28;20032;-65
2023/09/12 04:44:36;;;;;;;23.95;14.23;;;;;;;20.34;89.06;101153.44;5093894;28;20059;-65
2023/09/12 04:47:02;;;;;;;28.55;15.55;;;;;;;20.33;89.02;101149.00;5093671;28;20558;-65
2023/09/12 04:49:28;;;;;;;22.10;15.23;;;;;;;20.36;88.45;101152.50;5093759;28;20481;-65
2023/09/12 04:51:53;;;;;;;23.05;15.52;;;;;;;20.43;87.99;101147.88;5093644;28;20050;-65
2023/09/12 04:54:19;;;;;;;22.23;15.98;;;;;;;20.44;88.18;101149.63;5093918;28;20024;-65
2023/09/12 04:56:44;;;;;;;21.13;15.15;;;;;;;20.39;88.37;101147.06;5093573;28;20367;-65
2023/09/12 04:59:09;;;;;;;20.17;15.13;;;;;;;20.42;88.04;101143.41;5093610;28;20020;-65
2023/09/12 05:01:35;;;;;;;21.40;14.90;;;;;;;20.39;88.42;101156.94;5093379;28;20478;-65
2023/09/12 05:04:00;;;;;;;17.67;13.23;;;;;;;20.39;88.88;101152.44;5093447;28;20525;-65
2023/09/12 05:06:26;;;;;;;23.15;13.57;;;;;;;20.29;88.56;101166.97;5093437;28;20093;-65
2023/09/12 05:08:51;;;;;;;19.35;13.00;;;;;;;20.31;88.23;101162.47;5093082;28;20028;-65
2023/09/12 05:11:17;;;;;;;16.67;12.93;;;;;;;20.29;88.49;101164.28;5093133;28;20028;-65
2023/09/12 05:13:43;;;;;;;19.88;14.13;;;;;;;20.22;88.55;101168.94;5092659;28;20040;-66
2023/09/12 05:16:08;;;;;;;24.17;15.00;;;;;;;20.27;88.25;101167.03;5092746;28;20123;-67
2023/09/12 05:18:34;;;;;;;23.23;15.70;;;;;;;20.30;88.34;101162.50;5092702;28;20028;-65
2023/09/12 05:20:59;;;;;;;22.80;15.07;;;;;;;20.22;88.98;101166.28;5092677;28;20050;-65
2023/09/12 05:23:24;;;;;;;22.05;15.75;;;;;;;20.08;89.39;101157.63;5092637;28;20028;-65
2023/09/12 05:25:50;;;;;;;24.00;15.80;;;;;;;20.02;90.09;101165.84;5092716;28;20127;-65
2023/09/12 05:28:16;;;;;;;21.35;15.63;;;;;;;20.03;90.46;101159.56;5092709;28;20028;-65
2023/09/12 05:30:42;;;;;;;21.90;15.60;;;;;;;20.06;90.30;101155.94;5092289;28;20034;-67
2023/09/12 05:33:08;;;;;;;25.98;15.20;;;;;;;20.13;90.25;101146.84;5092643;28;20111;-66
2023/09/12 05:35:33;;;;;;;25.02;14.77;;;;;;;20.27;89.96;101140.19;5074722;28;20028;-66
2023/09/12 05:37:58;;;;;;;20.88;14.90;;;;;;;20.40;89.39;101134.53;5097175;28;20550;-66
2023/09/12 05:40:24;;;;;;;20.63;14.80;;;;;;;20.43;89.17;101131.78;5099099;28;20062;-66
2023/09/12 05:42:49;;;;;;;19.98;14.52;;;;;;;20.46;88.99;101132.56;5099201;28;20139;-67
2023/09/12 05:45:15;;;;;;;21.15;15.18;;;;;;;20.62;88.40;101141.13;5099197;28;20032;-66
2023/09/12 05:47:40;;;;;;;20.00;14.20;;;;;;;20.61;88.43;101138.50;5099406;28;20031;-65
2023/09/12 05:50:06;;;;;;;20.33;14.57;;;;;;;20.65;88.29;101145.56;5099148;28;20624;-65
2023/09/12 05:52:32;;;;;;;19.33;14.90;;;;;;;20.68;88.40;101140.97;5099044;28;20039;-65
2023/09/12 05:54:58;;;;;;;30.15;15.25;;;;;;;20.61;88.47;101152.81;5099040;28;20050;-65
2023/09/12 05:57:23;;;;;;;20.27;15.55;;;;;;;20.64;88.65;101154.50;5099017;28;20466;-65
2023/09/12 05:59:50;;;;;;;22.75;15.88;;;;;;;20.55;88.83;101147.56;5098974;28;20529;-65
2023/09/12 06:02:15;;;;;;;24.17;16.15;;;;;;;20.71;88.92;101156.13;5080896;28;20020;-65
2023/09/12 06:04:40;;;;;;;17.75;13.50;;;;;;;20.78;88.13;101155.06;5099227;28;20032;-65
2023/09/12 06:07:06;;;;;;;20.85;14.27;;;;;;;20.82;87.78;101156.72;5099206;28;20035;-65
2023/09/12 06:09:31;;;;;;;28.20;15.35;;;;;;;20.85;87.81;101158.44;5098628;28;20482;-66
2023/09/12 06:11:57;;;;;;;23.40;13.82;;;;;;;20.77;87.89;101158.66;5098944;28;20389;-66
2023/09/12 06:14:22;;;;;;;19.02;13.25;;;;;;;20.83;87.69;101163.88;5098672;28;20101;-66
2023/09/12 06:16:48;;;;;;;19.75;13.77;;;;;;;20.80;87.85;101163.94;5080596;28;20028;-66
2023/09/12 06:19:19;;;;;;;21.17;13.80;;;;;;;20.69;88.10;101150.81;5098956;28;20024;-66
2023/09/12 06:21:45;;;;;;;18.87;12.90;;;;;;;20.88;87.79;101164.63;5099056;28;20432;-66
2023/09/12 06:24:13;;;;;;;18.63;13.82;;;;;;;20.86;87.57;101161.09;5099223;28;20020;-66
2023/09/12 06:26:39;;;;;;;22.08;14.13;;;;;;;20.91;87.33;101160.97;5098290;28;20036;-66
2023/09/12 06:29:04;;;;;;;19.30;14.15;;;;;;;20.86;87.44;101170.97;5098851;28;20440;-66
2023/09/12 06:31:30;;;;;;;22.30;14.13;;;;;;;20.76;88.11;101165.81;5098935;28;20017;-66
2023/09/12 06:33:56;;;;;;;24.85;15.27;;;;;;;20.80;89.05;101163.94;5098853;28;20028;-66
2023/09/12 06:36:23;;;;;;;23.00;15.68;;;;;;;20.79;89.38;101156.81;5098841;28;20028;-66
2023/09/12 06:38:49;;;;;;;21.35;15.77;;;;;;;20.85;89.92;101166.50;5081026;28;20112;-66
2023/09/12 06:41:15;;;;;;;26.83;18.33;;;;;;;20.84;89.79;101164.75;5080529;28;20482;-66
2023/09/12 06:43:40;;;;;;;27.90;20.98;;;;;;;20.80;90.13;101177.38;5098736;28;20024;-66
2023/09/12 06:46:06;;;;;;;30.00;20.60;;;;;;;20.79;90.45;101183.66;5098842;28;20031;-66
2023/09/12 06:48:31;;;;;;;29.33;20.48;;;;;;;20.87;90.31;101178.09;5096513;28;20443;-66
2023/09/12 06:50:57;;;;;;;30.55;20.65;;;;;;;20.92;89.68;101185.09;5095433;28;20470;-66
2023/09/12 06:53:22;;;;;;;28.40;19.95;;;;;;;20.92;90.28;101181.53;5095503;28;20103;-66
2023/09/12 06:55:49;;;;;;;28.75;19.42;;;;;;;20.92;90.61;101179.72;5095129;28;20484;-66
2023/09/12 06:58:14;;;;;;;26.27;18.35;;;;;;;20.97;90.69;101187.66;5094878;28;20086;-66
2023/09/12 07:00:39;;;;;;;23.52;17.45;;;;;;;21.01;89.40;101186.66;5077373;28;20024;-66
2023/09/12 07:03:05;;;;;;;24.83;17.30;;;;;;;21.07;89.44;101194.56;5095094;28;20073;-66
2023/09/12 07:05:30;;;;;;;25.98;18.35;;;;;;;21.06;89.07;101192.78;5095084;28;20537;-62
2023/09/12 07:07:55;;;;;;;25.10;17.70;;;;;;;21.06;89.11;101199.97;5095128;28;20024;-61
2023/09/12 07:10:21;;;;;;;25.90;17.95;;;;;;;21.05;89.28;101198.22;5094751;28;20389;-61
2023/09/12 07:12:46;;;;;;;24.92;17.10;;;;;;;21.11;88.88;101196.25;5094762;28;20064;-62
2023/09/12 07:15:12;;;;;;;24.27;17.23;;;;;;;21.08;88.65;101190.94;5094938;28;20078;-62
2023/09/12 07:17:38;;;;;;;24.50;18.20;;;;;;;21.15;89.15;101186.28;5095029;28;20077;-62
2023/09/12 07:20:04;;;;;;;27.48;18.02;;;;;;;21.16;88.61;101198.81;5094937;28;20115;-62
2023/09/12 07:22:30;;;;;;;25.48;18.98;;;;;;;21.13;89.81;101190.81;5094718;28;20560;-61
2023/09/12 07:24:55;;;;;;;26.10;18.98;;;;;;;21.22;89.65;101199.50;5094853;28;20153;-61
2023/09/12 07:27:20;;;;;;;27.20;18.95;;;;;;;21.23;89.51;101193.19;5094770;28;20035;-61
2023/09/12 07:29:46;;;;;;;32.17;19.60;;;;;;;21.30;89.78;101196.63;5094988;28;20043;-62
2023/09/12 07:32:11;;;;;;;23.48;17.75;;;;;;;21.38;88.80;101186.56;5094630;28;20032;-62
2023/09/12 07:34:37;;;;;;;25.23;18.52;;;;;;;21.44;89.86;101201.63;5094649;28;20024;-62
2023/09/12 07:37:03;;;;;;;28.80;18.27;;;;;;;21.56;90.14;101203.09;5094789;28;20085;-62
2023/09/12 07:39:29;;;;;;;30.27;19.45;;;;;;;21.53;89.52;101212.13;5094319;28;20024;-62
2023/09/12 07:41:54;;;;;;;29.23;19.42;;;;;;;21.55;89.38;101215.66;5094275;28;20024;-62
2023/09/12 07:44:20;;;;;;;26.52;19.83;;;;;;;21.65;89.11;101214.44;5094284;28;20056;-62
2023/09/12 07:46:46;;;;;;;28.05;19.35;;;;;;;21.72;89.12;101205.28;5094242;28;20123;-62
2023/09/12 07:49:11;;;;;;;28.38;20.38;;;;;;;21.99;89.71;101208.94;5094379;28;20032;-63
2023/09/12 07:51:37;;;;;;;27.85;19.17;;;;;;;22.25;88.92;101210.84;5094498;28;20137;-63
2023/09/12 07:54:02;;;;;;;26.52;19.15;;;;;;;22.48;89.96;101207.44;5094238;28;20402;-61
2023/09/12 07:56:28;;;;;;;26.17;19.20;;;;;;;22.78;85.49;101201.91;5094326;28;20072;-59
2023/09/12 07:58:55;;;;;;;25.52;18.13;;;;;;;23.16;83.77;101197.91;5094054;28;20339;-61
2023/09/12 08:01:21;;;;;;;26.38;18.67;;;;;;;23.49;81.92;101200.34;5093595;28;20028;-62
2023/09/12 08:03:46;;;;;;;26.45;18.42;;;;;;;23.81;80.37;101200.94;5093952;28;20085;-62
2023/09/12 08:06:13;;;;;;;24.13;17.70;;;;;;;24.13;78.58;101194.31;5094026;28;20034;-61
2023/09/12 08:08:38;;;;;;;27.05;18.83;;;;;;;24.46;79.01;101203.78;5093726;28;20111;-59
2023/09/12 08:11:03;;;;;;;24.70;18.50;;;;;;;24.61;76.15;101206.78;5094064;28;20115;-60
2023/09/12 08:13:30;;;;;;;27.10;18.42;;;;;;;24.87;75.10;101198.44;5093457;28;20040;-61
2023/09/12 08:15:56;;;;;;;25.65;17.63;;;;;;;25.09;74.86;101208.34;5093862;28;20023;-61
2023/09/12 08:18:26;;;;;;;25.65;18.58;;;;;;;25.17;74.28;101215.16;5093608;28;20036;-60
2023/09/12 08:20:51;;;;;;;21.48;17.63;;;;;;;25.15;72.37;101227.03;5093416;28;20020;-61
2023/09/12 08:23:17;;;;;;;26.83;18.30;;;;;;;25.02;73.98;101236.59;5093596;28;20028;-62
2023/09/12 08:25:42;;;;;;;27.25;20.63;;;;;;;24.81;74.21;101230.25;5075177;28;20119;-61
2023/09/12 08:28:08;;;;;;;31.00;23.83;;;;;;;24.49;75.07;101227.94;5093836;28;20028;-61
2023/09/12 08:30:33;;;;;;;31.42;24.10;;;;;;;24.42;75.88;101230.97;5093373;28;20462;-62
2023/09/12 08:32:58;;;;;;;29.05;23.50;;;;;;;24.28;76.83;101225.19;5093341;28;20064;-62
2023/09/12 08:35:26;;;;;;;25.13;18.88;;;;;;;24.11;77.59;101233.97;5093491;28;20031;-60
2023/09/12 08:37:51;;;;;;;26.15;19.58;;;;;;;23.83;78.40;101248.53;5093221;28;20095;-61
2023/09/12 08:40:17;;;;;;;23.88;17.98;;;;;;;23.64;79.45;101253.72;5093106;28;20505;-61
2023/09/12 08:42:44;;;;;;;22.70;18.08;;;;;;;23.63;80.32;101251.06;5093089;28;20032;-61
2023/09/12 08:45:18;;;;;;;22.40;18.30;;;;;;;23.67;81.74;101250.94;5093224;28;20016;-62
2023/09/12 08:47:45;;;;;;;25.23;18.60;;;;;;;23.73;81.10;101256.13;5093207;28;20032;-61
2023/09/12 08:50:13;;;;;;;23.73;17.33;;;;;;;23.77;79.86;101243.41;5075040;28;20020;-61
2023/09/12 08:52:42;;;;;;;26.52;18.95;;;;;;;23.70;80.05;101245.44;5093174;28;20114;-61
2023/09/12 08:55:09;;;;;;;23.25;17.70;;;;;;;23.80;80.37;101250.47;5093100;28;20027;-61
2023/09/12 08:57:37;;;;;;;22.42;17.75;;;;;;;23.87;79.55;101246.63;5092972;28;20028;-61
2023/09/12 09:00:09;;;;;;;22.73;17.27;;;;;;;24.13;79.77;101245.59;5092839;28;20044;-60
2023/09/12 09:02:38;;;;;;;;;;;;;;;24.40;78.69;101252.63;5093502;28;20423;-62
2023/09/12 09:05:05;;;;;;;21.95;16.42;;;;;;;24.37;76.29;101249.16;5057935;28;19908;-61
2023/09/12 09:07:34;;;;;;;19.55;14.88;;;;;;;24.36;75.73;101255.47;5092673;28;20051;-62
2023/09/12 09:10:04;;;;;;;20.63;15.13;;;;;;;24.27;76.10;101263.97;5092737;28;20099;-61
2023/09/12 09:12:29;;;;;;;21.98;16.05;;;;;;;24.18;76.27;101260.69;5091617;28;20378;-60
2023/09/12 09:14:55;;;;;;;22.08;14.35;;;;;;;24.13;76.05;101256.41;5092663;28;20036;-61
2023/09/12 09:17:20;;;;;;;19.83;15.18;;;;;;;24.20;77.23;101249.84;5092418;28;20111;-62
2023/09/12 09:19:46;;;;;;;19.25;15.00;;;;;;;24.53;76.55;101250.31;5092621;28;20097;-60
2023/09/12 09:22:11;;;;;;;20.70;14.15;;;;;;;24.90;74.11;101235.28;5092886;28;20035;-61
2023/09/12 09:24:37;;;;;;;21.27;14.68;;;;;;;25.28;74.56;101225.53;5092567;28;20059;-62
2023/09/12 09:27:03;;;;;;;19.98;13.93;;;;;;;25.65;70.23;101222.03;5092550;28;20093;-60
2023/09/12 09:29:31;;;;;;;20.00;14.63;;;;;;;25.90;69.60;101231.75;5092668;28;20024;-61
2023/09/12 09:31:59;;;;;;;23.42;16.27;;;;;;;26.01;67.74;101224.00;5092301;28;20030;-61
2023/09/12 09:34:24;;;;;;;20.67;14.88;;;;;;;26.45;67.02;101226.41;5092409;28;20058;-61
2023/09/12 09:36:51;;;;;;;20.40;15.25;;;;;;;26.60;67.17;101227.50;5092464;28;20403;-60
2023/09/12 09:39:18;;;;;;;18.85;15.32;;;;;;;26.80;65.17;101231.91;5092313;28;20140;-61
2023/09/12 09:41:52;;;;;;;21.85;16.48;;;;;;;26.88;65.30;101235.09;5092602;28;20039;-61
2023/09/12 09:44:18;;;;;;;21.90;16.40;;;;;;;27.21;65.92;101229.81;5092745;28;20074;-61
2023/09/12 09:46:45;;;;;;;20.17;15.35;;;;;;;27.53;64.85;101235.34;5092122;28;20093;-60
2023/09/12 09:49:11;;;;;;;24.08;16.33;;;;;;;27.62;62.53;101229.41;5092339;28;20105;-62
2023/09/12 09:51:44;;;;;;;21.90;15.43;;;;;;;27.75;62.38;101216.06;5092255;28;20062;-60
2023/09/12 09:54:12;;;;;;;21.90;15.75;;;;;;;27.66;61.38;101221.00;5092139;28;20119;-62
2023/09/12 09:56:52;;;;;;;23.30;15.75;;;;;;;28.09;64.37;101209.63;5092184;28;20047;-61
2023/09/12 09:59:21;;;;;;;24.92;16.10;;;;;;;28.23;62.33;101214.31;5092257;28;20024;-61
2023/09/12 10:01:48;;;;;;;21.00;15.23;;;;;;;28.50;59.86;101211.84;5091973;28;20024;-60
2023/09/12 10:04:15;;;;;;;18.17;14.85;;;;;;;28.98;60.02;101223.53;5092337;28;20103;-61
2023/09/12 10:06:43;;;;;;;21.30;14.75;;;;;;;28.99;57.60;101228.00;5097604;28;20027;-60
2023/09/12 10:09:11;;;;;;;18.45;13.20;;;;;;;29.00;55.74;101227.94;5082972;28;20430;-61
2023/09/12 10:11:39;;;;;;;15.60;11.32;;;;;;;29.05;56.05;101231.25;5102283;28;20226;-62
2023/09/12 10:14:06;;;;;;;16.42;13.32;;;;;;;29.21;55.36;101231.19;5084335;28;20117;-60
2023/09/12 10:16:33;;;;;;;21.17;14.52;;;;;;;29.47;56.67;101220.53;5101825;28;20040;-62
2023/09/12 10:19:04;;;;;;;18.50;13.57;;;;;;;29.76;53.92;101214.13;5103266;28;20028;-61
2023/09/12 10:21:31;;;;;;;18.38;13.23;;;;;;;29.73;55.12;101211.63;5100470;28;20486;-61
2023/09/12 10:23:59;;;;;;;21.90;10.57;;;;;;;29.69;51.26;101210.06;5108284;28;20027;-61
2023/09/12 10:26:25;;;;;;;15.77;11.02;;;;;;;29.73;51.59;101217.09;5116048;28;20063;-62
2023/09/12 10:28:51;;;;;;;21.48;14.60;;;;;;;29.53;53.85;101217.44;5115932;28;20081;-62
2023/09/12 10:31:17;;;;;;;20.90;14.55;;;;;;;29.55;52.79;101218.19;5116120;28;20110;-62
2023/09/12 10:33:44;;;;;;;22.45;15.55;;;;;;;29.49;53.24;101208.56;5116192;28;20027;-62
2023/09/12 10:36:11;;;;;;;16.45;11.68;;;;;;;29.94;52.74;101207.53;5115941;28;20020;-62
2023/09/12 10:38:43;;;;;;;14.07;9.68;;;;;;;30.07;50.67;101198.56;5115689;28;20038;-61
2023/09/12 10:41:15;;;;;;;15.25;9.80;;;;;;;30.31;52.85;101204.25;5115765;28;20032;-61
2023/09/12 10:43:42;;;;;;;18.63;10.60;;;;;;;30.50;50.37;101207.53;5115731;28;20024;-61
2023/09/12 10:46:08;;;;;;;19.00;13.43;;;;;;;30.60;50.95;101205.91;5115520;28;20081;-62
2023/09/12 10:48:37;;;;;;;21.30;15.60;;;;;;;30.25;51.08;101211.00;5116038;28;20443;-62
2023/09/12 10:51:05;;;;;;;19.95;13.98;;;;;;;30.47;50.16;101204.13;5115629;28;20481;-61
2023/09/12 10:53:30;;;;;;;19.77;14.10;;;;;;;30.60;49.78;101203.19;5115701;28;20031;-61
2023/09/12 10:56:01;;;;;;;20.70;15.50;;;;;;;30.50;51.50;101203.94;5115652;28;20538;-62
2023/09/12 10:58:27;;;;;;;21.75;15.40;;;;;;;30.77;49.70;101203.94;5115487;28;20019;-61
2023/09/12 11:01:27;;;;;;;19.45;13.57;;;;;;;30.74;51.33;101206.88;5115713;28;20054;-62
2023/09/12 11:03:52;;;;;;;15.43;11.07;;;;;;;30.53;49.82;101209.16;5115564;28;20015;-61
2023/09/12 11:06:23;;;;;;;18.75;13.38;;;;;;;30.59;49.45;101215.09;5097207;28;20370;-63